sensor_id;sensor_type;location;lat;lon;timestamp;P1;durP1;ratioP1;P2;durP2;ratioP2
18893;SDS011;9579;49.488;8.226;2024-01-07T00:01:35;9.60;;;8.80;;
18893;SDS011;9579;49.488;8.226;2024-01-07T00:04:22;10.13;;;9.33;;
18893;SDS011;9579;49.488;8.226;2024-01-07T00:07:09;8.93;;;8.23;;
18893;SDS011;9579;49.488;8.226;2024-01-07T00:09:56;8.80;;;8.10;;
18893;SDS011;9579;49.488;8.226;2024-01-07T00:12:44;8.90;;;8.20;;
18893;SDS011;9579;49.488;8.226;2024-01-07T00:15:31;9.77;;;8.90;;
18893;SDS011;9579;49.488;8.226;2024-01-07T00:18:18;9.30;;;8.50;;
18893;SDS011;9579;49.488;8.226;2024-01-07T00:21:05;9.43;;;8.60;;
18893;SDS011;9579;49.488;8.226;2024-01-07T00:23:52;9.30;;;8.50;;
18893;SDS011;9579;49.488;8.226;2024-01-07T00:26:39;9.23;;;8.43;;
18893;SDS011;9579;49.488;8.226;2024-01-07T00:29:28;9.47;;;8.67;;
18893;SDS011;9579;49.488;8.226;2024-01-07T00:32:15;8.47;;;7.77;;
18893;SDS011;9579;49.488;8.226;2024-01-07T00:35:02;9.23;;;8.43;;
18893;SDS011;9579;49.488;8.226;2024-01-07T00:37:50;9.50;;;8.60;;
18893;SDS011;9579;49.488;8.226;2024-01-07T00:40:37;9.90;;;9.00;;
18893;SDS011;9579;49.488;8.226;2024-01-07T00:43:24;8.53;;;7.83;;
18893;SDS011;9579;49.488;8.226;2024-01-07T00:46:12;9.53;;;8.67;;
18893;SDS011;9579;49.488;8.226;2024-01-07T00:48:59;9.60;;;8.77;;
18893;SDS011;9579;49.488;8.226;2024-01-07T00:51:46;8.77;;;8.07;;
18893;SDS011;9579;49.488;8.226;2024-01-07T00:54:33;8.87;;;8.17;;
18893;SDS011;9579;49.488;8.226;2024-01-07T00:57:20;9.43;;;8.53;;
18893;SDS011;9579;49.488;8.226;2024-01-07T01:00:08;10.07;;;9.17;;
18893;SDS011;9579;49.488;8.226;2024-01-07T01:02:57;8.30;;;7.60;;
18893;SDS011;9579;49.488;8.226;2024-01-07T01:05:44;8.50;;;7.80;;
18893;SDS011;9579;49.488;8.226;2024-01-07T01:08:31;8.20;;;7.50;;
18893;SDS011;9579;49.488;8.226;2024-01-07T01:11:18;8.80;;;8.10;;
18893;SDS011;9579;49.488;8.226;2024-01-07T01:14:05;9.03;;;8.30;;
18893;SDS011;9579;49.488;8.226;2024-01-07T01:16:52;9.37;;;8.50;;
18893;SDS011;9579;49.488;8.226;2024-01-07T01:19:41;9.30;;;8.50;;
18893;SDS011;9579;49.488;8.226;2024-01-07T01:22:28;9.63;;;8.83;;
18893;SDS011;9579;49.488;8.226;2024-01-07T01:25:15;8.77;;;8.00;;
18893;SDS011;9579;49.488;8.226;2024-01-07T01:28:02;8.63;;;7.93;;
18893;SDS011;9579;49.488;8.226;2024-01-07T01:30:49;7.90;;;7.20;;
18893;SDS011;9579;49.488;8.226;2024-01-07T01:33:36;8.33;;;7.63;;
18893;SDS011;9579;49.488;8.226;2024-01-07T01:36:25;9.00;;;8.20;;
18893;SDS011;9579;49.488;8.226;2024-01-07T01:39:12;8.13;;;7.47;;
18893;SDS011;9579;49.488;8.226;2024-01-07T01:41:59;7.87;;;7.27;;
18893;SDS011;9579;49.488;8.226;2024-01-07T01:44:46;7.80;;;7.20;;
18893;SDS011;9579;49.488;8.226;2024-01-07T01:47:33;8.77;;;8.07;;
18893;SDS011;9579;49.488;8.226;2024-01-07T01:50:20;8.70;;;7.93;;
18893;SDS011;9579;49.488;8.226;2024-01-07T01:53:09;7.37;;;6.77;;
18893;SDS011;9579;49.488;8.226;2024-01-07T01:55:57;9.30;;;8.50;;
18893;SDS011;9579;49.488;8.226;2024-01-07T01:58:47;8.10;;;7.40;;
18893;SDS011;9579;49.488;8.226;2024-01-07T02:01:34;7.27;;;6.73;;
18893;SDS011;9579;49.488;8.226;2024-01-07T02:04:21;9.80;;;9.00;;
18893;SDS011;9579;49.488;8.226;2024-01-07T02:07:08;8.03;;;7.33;;
18893;SDS011;9579;49.488;8.226;2024-01-07T02:09:57;8.53;;;7.73;;
18893;SDS011;9579;49.488;8.226;2024-01-07T02:12:44;7.77;;;7.17;;
18893;SDS011;9579;49.488;8.226;2024-01-07T02:15:31;7.87;;;7.20;;
18893;SDS011;9579;49.488;8.226;2024-01-07T02:18:19;8.20;;;7.40;;
18893;SDS011;9579;49.488;8.226;2024-01-07T02:21:06;8.00;;;7.40;;
18893;SDS011;9579;49.488;8.226;2024-01-07T02:23:53;7.90;;;7.30;;
18893;SDS011;9579;49.488;8.226;2024-01-07T02:26:42;8.57;;;7.87;;
18893;SDS011;9579;49.488;8.226;2024-01-07T02:29:29;8.37;;;7.77;;
18893;SDS011;9579;49.488;8.226;2024-01-07T02:32:16;9.13;;;8.43;;
18893;SDS011;9579;49.488;8.226;2024-01-07T02:35:03;8.20;;;7.50;;
18893;SDS011;9579;49.488;8.226;2024-01-07T02:37:50;8.97;;;8.17;;
18893;SDS011;9579;49.488;8.226;2024-01-07T02:40:37;8.67;;;7.97;;
18893;SDS011;9579;49.488;8.226;2024-01-07T02:43:26;9.93;;;9.13;;
18893;SDS011;9579;49.488;8.226;2024-01-07T02:46:13;8.67;;;7.97;;
18893;SDS011;9579;49.488;8.226;2024-01-07T02:49:00;9.93;;;9.10;;
18893;SDS011;9579;49.488;8.226;2024-01-07T02:51:47;9.80;;;9.00;;
18893;SDS011;9579;49.488;8.226;2024-01-07T02:54:35;10.63;;;9.63;;
18893;SDS011;9579;49.488;8.226;2024-01-07T02:57:22;10.10;;;9.27;;
18893;SDS011;9579;49.488;8.226;2024-01-07T03:00:11;9.27;;;8.47;;
18893;SDS011;9579;49.488;8.226;2024-01-07T03:02:58;9.90;;;9.00;;
18893;SDS011;9579;49.488;8.226;2024-01-07T03:05:45;10.00;;;9.20;;
18893;SDS011;9579;49.488;8.226;2024-01-07T03:08:32;9.83;;;8.97;;
18893;SDS011;9579;49.488;8.226;2024-01-07T03:11:19;9.50;;;8.70;;
18893;SDS011;9579;49.488;8.226;2024-01-07T03:14:06;9.77;;;8.97;;
18893;SDS011;9579;49.488;8.226;2024-01-07T03:16:54;10.00;;;9.10;;
18893;SDS011;9579;49.488;8.226;2024-01-07T03:19:41;10.40;;;9.57;;
18893;SDS011;9579;49.488;8.226;2024-01-07T03:22:28;9.77;;;8.97;;
18893;SDS011;9579;49.488;8.226;2024-01-07T03:25:15;8.60;;;7.90;;
18893;SDS011;9579;49.488;8.226;2024-01-07T03:28:02;9.00;;;8.30;;
18893;SDS011;9579;49.488;8.226;2024-01-07T03:30:49;8.33;;;7.63;;
18893;SDS011;9579;49.488;8.226;2024-01-07T03:33:38;9.17;;;8.37;;
18893;SDS011;9579;49.488;8.226;2024-01-07T03:36:25;8.70;;;8.00;;
18893;SDS011;9579;49.488;8.226;2024-01-07T03:39:12;9.70;;;8.80;;
18893;SDS011;9579;49.488;8.226;2024-01-07T03:41:59;9.67;;;8.87;;
18893;SDS011;9579;49.488;8.226;2024-01-07T03:44:46;10.60;;;9.70;;
18893;SDS011;9579;49.488;8.226;2024-01-07T03:47:33;8.87;;;8.17;;
18893;SDS011;9579;49.488;8.226;2024-01-07T03:50:21;9.37;;;8.67;;
18893;SDS011;9579;49.488;8.226;2024-01-07T03:53:08;9.13;;;8.43;;
18893;SDS011;9579;49.488;8.226;2024-01-07T03:55:55;10.87;;;9.87;;
18893;SDS011;9579;49.488;8.226;2024-01-07T03:58:42;10.10;;;9.20;;
18893;SDS011;9579;49.488;8.226;2024-01-07T04:01:29;9.80;;;9.00;;
18893;SDS011;9579;49.488;8.226;2024-01-07T04:04:16;9.10;;;8.40;;
18893;SDS011;9579;49.488;8.226;2024-01-07T04:07:05;9.47;;;8.67;;
18893;SDS011;9579;49.488;8.226;2024-01-07T04:09:52;9.60;;;8.83;;
18893;SDS011;9579;49.488;8.226;2024-01-07T04:12:38;10.97;;;10.07;;
18893;SDS011;9579;49.488;8.226;2024-01-07T04:15:25;9.77;;;8.97;;
18893;SDS011;9579;49.488;8.226;2024-01-07T04:18:12;10.40;;;9.50;;
18893;SDS011;9579;49.488;8.226;2024-01-07T04:20:59;9.37;;;8.60;;
18893;SDS011;9579;49.488;8.226;2024-01-07T04:23:48;9.40;;;8.60;;
18893;SDS011;9579;49.488;8.226;2024-01-07T04:26:35;8.00;;;7.37;;
18893;SDS011;9579;49.488;8.226;2024-01-07T04:29:22;9.60;;;8.80;;
18893;SDS011;9579;49.488;8.226;2024-01-07T04:32:09;9.10;;;8.40;;
18893;SDS011;9579;49.488;8.226;2024-01-07T04:34:55;8.43;;;7.73;;
18893;SDS011;9579;49.488;8.226;2024-01-07T04:37:43;8.77;;;8.07;;
18893;SDS011;9579;49.488;8.226;2024-01-07T04:40:31;8.77;;;8.07;;
18893;SDS011;9579;49.488;8.226;2024-01-07T04:43:18;9.27;;;8.47;;
18893;SDS011;9579;49.488;8.226;2024-01-07T04:46:05;9.87;;;9.07;;
18893;SDS011;9579;49.488;8.226;2024-01-07T04:48:52;9.63;;;8.80;;
18893;SDS011;9579;49.488;8.226;2024-01-07T04:51:39;10.20;;;9.30;;
18893;SDS011;9579;49.488;8.226;2024-01-07T04:54:26;8.40;;;7.70;;
18893;SDS011;9579;49.488;8.226;2024-01-07T04:57:14;8.57;;;7.83;;
18893;SDS011;9579;49.488;8.226;2024-01-07T05:00:01;9.37;;;8.57;;
18893;SDS011;9579;49.488;8.226;2024-01-07T05:02:49;8.97;;;8.27;;
18893;SDS011;9579;49.488;8.226;2024-01-07T05:05:36;8.13;;;7.43;;
18893;SDS011;9579;49.488;8.226;2024-01-07T05:08:24;8.27;;;7.57;;
18893;SDS011;9579;49.488;8.226;2024-01-07T05:11:11;7.90;;;7.30;;
18893;SDS011;9579;49.488;8.226;2024-01-07T05:13:59;8.77;;;8.07;;
18893;SDS011;9579;49.488;8.226;2024-01-07T05:16:46;8.80;;;8.10;;
18893;SDS011;9579;49.488;8.226;2024-01-07T05:19:33;8.47;;;7.77;;
18893;SDS011;9579;49.488;8.226;2024-01-07T05:22:20;9.10;;;8.30;;
18893;SDS011;9579;49.488;8.226;2024-01-07T05:25:07;8.83;;;8.13;;
18893;SDS011;9579;49.488;8.226;2024-01-07T05:27:54;7.87;;;7.27;;
18893;SDS011;9579;49.488;8.226;2024-01-07T05:30:43;8.40;;;7.70;;
18893;SDS011;9579;49.488;8.226;2024-01-07T05:33:31;8.13;;;7.53;;
18893;SDS011;9579;49.488;8.226;2024-01-07T05:36:18;7.93;;;7.33;;
18893;SDS011;9579;49.488;8.226;2024-01-07T05:39:05;8.13;;;7.43;;
18893;SDS011;9579;49.488;8.226;2024-01-07T05:41:52;7.87;;;7.27;;
18893;SDS011;9579;49.488;8.226;2024-01-07T05:44:39;8.30;;;7.70;;
18893;SDS011;9579;49.488;8.226;2024-01-07T05:47:28;8.20;;;7.50;;
18893;SDS011;9579;49.488;8.226;2024-01-07T05:50:15;7.63;;;7.03;;
18893;SDS011;9579;49.488;8.226;2024-01-07T05:53:04;8.30;;;7.70;;
18893;SDS011;9579;49.488;8.226;2024-01-07T05:55:51;8.20;;;7.50;;
18893;SDS011;9579;49.488;8.226;2024-01-07T05:58:38;8.10;;;7.50;;
18893;SDS011;9579;49.488;8.226;2024-01-07T06:01:25;8.17;;;7.47;;
18893;SDS011;9579;49.488;8.226;2024-01-07T06:04:14;7.20;;;6.67;;
18893;SDS011;9579;49.488;8.226;2024-01-07T06:07:02;7.80;;;7.20;;
18893;SDS011;9579;49.488;8.226;2024-01-07T06:09:49;7.67;;;7.07;;
18893;SDS011;9579;49.488;8.226;2024-01-07T06:12:36;8.07;;;7.47;;
18893;SDS011;9579;49.488;8.226;2024-01-07T06:15:23;7.53;;;6.93;;
18893;SDS011;9579;49.488;8.226;2024-01-07T06:18:10;7.93;;;7.27;;
18893;SDS011;9579;49.488;8.226;2024-01-07T06:20:58;7.97;;;7.30;;
18893;SDS011;9579;49.488;8.226;2024-01-07T06:23:45;7.80;;;7.20;;
18893;SDS011;9579;49.488;8.226;2024-01-07T06:26:32;7.37;;;6.77;;
18893;SDS011;9579;49.488;8.226;2024-01-07T06:29:19;6.87;;;6.30;;
18893;SDS011;9579;49.488;8.226;2024-01-07T06:32:06;8.27;;;7.67;;
18893;SDS011;9579;49.488;8.226;2024-01-07T06:34:55;7.83;;;7.13;;
18893;SDS011;9579;49.488;8.226;2024-01-07T06:37:43;9.73;;;8.93;;
18893;SDS011;9579;49.488;8.226;2024-01-07T06:40:30;8.10;;;7.40;;
18893;SDS011;9579;49.488;8.226;2024-01-07T06:43:17;8.00;;;7.30;;
18893;SDS011;9579;49.488;8.226;2024-01-07T06:46:04;8.30;;;7.60;;
18893;SDS011;9579;49.488;8.226;2024-01-07T06:48:51;8.30;;;7.60;;
18893;SDS011;9579;49.488;8.226;2024-01-07T06:51:38;7.67;;;7.03;;
18893;SDS011;9579;49.488;8.226;2024-01-07T06:54:27;8.63;;;7.93;;
18893;SDS011;9579;49.488;8.226;2024-01-07T06:57:14;8.43;;;7.73;;
18893;SDS011;9579;49.488;8.226;2024-01-07T07:00:01;8.47;;;7.77;;
18893;SDS011;9579;49.488;8.226;2024-01-07T07:02:49;8.37;;;7.67;;
18893;SDS011;9579;49.488;8.226;2024-01-07T07:05:36;7.57;;;6.97;;
18893;SDS011;9579;49.488;8.226;2024-01-07T07:08:24;7.47;;;6.87;;
18893;SDS011;9579;49.488;8.226;2024-01-07T07:11:12;7.70;;;7.10;;
18893;SDS011;9579;49.488;8.226;2024-01-07T07:13:59;7.53;;;6.93;;
18893;SDS011;9579;49.488;8.226;2024-01-07T07:16:46;7.60;;;7.00;;
18893;SDS011;9579;49.488;8.226;2024-01-07T07:19:33;7.17;;;6.57;;
18893;SDS011;9579;49.488;8.226;2024-01-07T07:22:20;7.93;;;7.27;;
18893;SDS011;9579;49.488;8.226;2024-01-07T07:25:07;7.40;;;6.80;;
18893;SDS011;9579;49.488;8.226;2024-01-07T07:27:56;8.50;;;7.80;;
18893;SDS011;9579;49.488;8.226;2024-01-07T07:30:43;7.90;;;7.30;;
18893;SDS011;9579;49.488;8.226;2024-01-07T07:33:30;8.60;;;7.90;;
18893;SDS011;9579;49.488;8.226;2024-01-07T07:36:17;7.87;;;7.27;;
18893;SDS011;9579;49.488;8.226;2024-01-07T07:39:04;8.77;;;8.00;;
18893;SDS011;9579;49.488;8.226;2024-01-07T07:41:51;11.70;;;10.70;;
18893;SDS011;9579;49.488;8.226;2024-01-07T07:44:39;9.90;;;9.00;;
18893;SDS011;9579;49.488;8.226;2024-01-07T07:47:26;9.73;;;8.93;;
18893;SDS011;9579;49.488;8.226;2024-01-07T07:50:13;9.50;;;8.70;;
18893;SDS011;9579;49.488;8.226;2024-01-07T07:53:00;9.90;;;9.10;;
18893;SDS011;9579;49.488;8.226;2024-01-07T07:55:48;11.20;;;10.20;;
18893;SDS011;9579;49.488;8.226;2024-01-07T07:58:35;9.43;;;8.63;;
18893;SDS011;9579;49.488;8.226;2024-01-07T08:01:23;10.20;;;9.30;;
18893;SDS011;9579;49.488;8.226;2024-01-07T08:04:10;13.43;;;12.17;;
18893;SDS011;9579;49.488;8.226;2024-01-07T08:06:57;12.30;;;11.10;;
18893;SDS011;9579;49.488;8.226;2024-01-07T08:09:46;11.57;;;10.53;;
18893;SDS011;9579;49.488;8.226;2024-01-07T08:12:33;11.83;;;10.77;;
18893;SDS011;9579;49.488;8.226;2024-01-07T08:15:20;11.93;;;10.77;;
18893;SDS011;9579;49.488;8.226;2024-01-07T08:18:08;13.60;;;12.37;;
18893;SDS011;9579;49.488;8.226;2024-01-07T08:20:55;14.03;;;12.70;;
18893;SDS011;9579;49.488;8.226;2024-01-07T08:23:42;14.83;;;13.47;;
18893;SDS011;9579;49.488;8.226;2024-01-07T08:26:29;12.33;;;11.13;;
18893;SDS011;9579;49.488;8.226;2024-01-07T08:29:17;12.20;;;11.10;;
18893;SDS011;9579;49.488;8.226;2024-01-07T08:32:04;11.73;;;10.73;;
18893;SDS011;9579;49.488;8.226;2024-01-07T08:34:53;11.87;;;10.87;;
18893;SDS011;9579;49.488;8.226;2024-01-07T08:37:40;11.00;;;10.00;;
18893;SDS011;9579;49.488;8.226;2024-01-07T08:40:27;11.43;;;10.33;;
18893;SDS011;9579;49.488;8.226;2024-01-07T08:43:15;13.70;;;12.40;;
18893;SDS011;9579;49.488;8.226;2024-01-07T08:46:02;12.93;;;11.83;;
18893;SDS011;9579;49.488;8.226;2024-01-07T08:48:50;13.80;;;12.50;;
18893;SDS011;9579;49.488;8.226;2024-01-07T08:51:39;15.27;;;13.77;;
18893;SDS011;9579;49.488;8.226;2024-01-07T08:54:26;12.77;;;11.53;;
18893;SDS011;9579;49.488;8.226;2024-01-07T08:57:13;16.10;;;14.50;;
18893;SDS011;9579;49.488;8.226;2024-01-07T09:00:00;11.87;;;10.77;;
18893;SDS011;9579;49.488;8.226;2024-01-07T09:02:48;15.37;;;13.73;;
18893;SDS011;9579;49.488;8.226;2024-01-07T09:05:35;11.97;;;10.87;;
18893;SDS011;9579;49.488;8.226;2024-01-07T09:08:23;14.00;;;12.60;;
18893;SDS011;9579;49.488;8.226;2024-01-07T09:11:11;11.87;;;10.77;;
18893;SDS011;9579;49.488;8.226;2024-01-07T09:13:58;13.77;;;12.37;;
18893;SDS011;9579;49.488;8.226;2024-01-07T09:16:45;13.00;;;11.80;;
18893;SDS011;9579;49.488;8.226;2024-01-07T09:19:32;13.00;;;11.80;;
18893;SDS011;9579;49.488;8.226;2024-01-07T09:22:19;12.33;;;11.13;;
18893;SDS011;9579;49.488;8.226;2024-01-07T09:25:08;15.60;;;14.00;;
18893;SDS011;9579;49.488;8.226;2024-01-07T09:27:56;14.07;;;12.77;;
18893;SDS011;9579;49.488;8.226;2024-01-07T09:30:43;13.90;;;12.50;;
18893;SDS011;9579;49.488;8.226;2024-01-07T09:33:30;14.93;;;13.43;;
18893;SDS011;9579;49.488;8.226;2024-01-07T09:36:17;17.23;;;15.17;;
18893;SDS011;9579;49.488;8.226;2024-01-07T09:39:04;12.07;;;10.97;;
18893;SDS011;9579;49.488;8.226;2024-01-07T09:41:53;9.87;;;9.00;;
18893;SDS011;9579;49.488;8.226;2024-01-07T09:44:40;10.20;;;9.30;;
18893;SDS011;9579;49.488;8.226;2024-01-07T09:47:27;10.60;;;9.70;;
18893;SDS011;9579;49.488;8.226;2024-01-07T09:50:15;9.30;;;8.50;;
18893;SDS011;9579;49.488;8.226;2024-01-07T09:53:02;9.17;;;8.37;;
18893;SDS011;9579;49.488;8.226;2024-01-07T09:55:51;10.20;;;9.30;;
18893;SDS011;9579;49.488;8.226;2024-01-07T09:58:44;9.77;;;8.87;;
18893;SDS011;9579;49.488;8.226;2024-01-07T10:01:33;8.80;;;8.00;;
18893;SDS011;9579;49.488;8.226;2024-01-07T10:04:22;9.57;;;8.77;;
18893;SDS011;9579;49.488;8.226;2024-01-07T10:07:09;9.47;;;8.67;;
18893;SDS011;9579;49.488;8.226;2024-01-07T10:09:56;9.40;;;8.60;;
18893;SDS011;9579;49.488;8.226;2024-01-07T10:12:43;8.40;;;7.70;;
18893;SDS011;9579;49.488;8.226;2024-01-07T10:15:33;9.40;;;8.63;;
18893;SDS011;9579;49.488;8.226;2024-01-07T10:18:20;10.50;;;9.67;;
18893;SDS011;9579;49.488;8.226;2024-01-07T10:21:07;9.63;;;8.93;;
18893;SDS011;9579;49.488;8.226;2024-01-07T10:23:55;8.67;;;8.03;;
18893;SDS011;9579;49.488;8.226;2024-01-07T10:26:55;11.93;;;10.93;;
18893;SDS011;9579;49.488;8.226;2024-01-07T10:29:42;9.23;;;8.53;;
18893;SDS011;9579;49.488;8.226;2024-01-07T10:32:31;8.83;;;8.13;;
18893;SDS011;9579;49.488;8.226;2024-01-07T10:35:18;9.50;;;8.80;;
18893;SDS011;9579;49.488;8.226;2024-01-07T10:38:08;9.00;;;8.30;;
18893;SDS011;9579;49.488;8.226;2024-01-07T10:40:55;9.60;;;8.80;;
18893;SDS011;9579;49.488;8.226;2024-01-07T10:43:45;7.53;;;6.93;;
18893;SDS011;9579;49.488;8.226;2024-01-07T10:46:33;8.43;;;7.73;;
18893;SDS011;9579;49.488;8.226;2024-01-07T10:49:22;12.47;;;11.37;;
18893;SDS011;9579;49.488;8.226;2024-01-07T10:52:10;16.83;;;15.30;;
18893;SDS011;9579;49.488;8.226;2024-01-07T10:55:00;8.13;;;7.47;;
18893;SDS011;9579;49.488;8.226;2024-01-07T10:57:55;7.83;;;7.23;;
18893;SDS011;9579;49.488;8.226;2024-01-07T11:00:43;8.80;;;8.10;;
18893;SDS011;9579;49.488;8.226;2024-01-07T11:03:34;8.97;;;8.23;;
18893;SDS011;9579;49.488;8.226;2024-01-07T11:06:28;8.63;;;7.97;;
18893;SDS011;9579;49.488;8.226;2024-01-07T11:09:23;8.90;;;8.20;;
18893;SDS011;9579;49.488;8.226;2024-01-07T11:12:18;7.73;;;7.13;;
18893;SDS011;9579;49.488;8.226;2024-01-07T11:15:06;8.40;;;7.70;;
18893;SDS011;9579;49.488;8.226;2024-01-07T11:17:53;10.17;;;9.27;;
18893;SDS011;9579;49.488;8.226;2024-01-07T11:20:40;9.53;;;8.73;;
18893;SDS011;9579;49.488;8.226;2024-01-07T11:23:29;9.63;;;8.83;;
18893;SDS011;9579;49.488;8.226;2024-01-07T11:26:19;10.73;;;9.83;;
18893;SDS011;9579;49.488;8.226;2024-01-07T11:29:06;9.90;;;9.10;;
18893;SDS011;9579;49.488;8.226;2024-01-07T11:31:56;11.47;;;10.57;;
18893;SDS011;9579;49.488;8.226;2024-01-07T11:34:43;8.90;;;8.20;;
18893;SDS011;9579;49.488;8.226;2024-01-07T11:37:33;9.73;;;8.93;;
18893;SDS011;9579;49.488;8.226;2024-01-07T11:40:21;11.03;;;10.13;;
18893;SDS011;9579;49.488;8.226;2024-01-07T11:43:08;10.03;;;9.23;;
18893;SDS011;9579;49.488;8.226;2024-01-07T11:45:56;11.03;;;10.13;;
18893;SDS011;9579;49.488;8.226;2024-01-07T11:48:43;9.97;;;9.07;;
18893;SDS011;9579;49.488;8.226;2024-01-07T11:51:31;8.53;;;7.83;;
18893;SDS011;9579;49.488;8.226;2024-01-07T11:54:20;9.00;;;8.30;;
18893;SDS011;9579;49.488;8.226;2024-01-07T11:57:09;10.23;;;9.33;;
18893;SDS011;9579;49.488;8.226;2024-01-07T11:59:57;9.67;;;8.90;;
18893;SDS011;9579;49.488;8.226;2024-01-07T12:02:45;7.97;;;7.37;;
18893;SDS011;9579;49.488;8.226;2024-01-07T12:05:32;8.93;;;8.23;;
18893;SDS011;9579;49.488;8.226;2024-01-07T12:08:19;10.60;;;9.70;;
18893;SDS011;9579;49.488;8.226;2024-01-07T12:11:06;9.20;;;8.40;;
18893;SDS011;9579;49.488;8.226;2024-01-07T12:13:55;9.63;;;8.83;;
18893;SDS011;9579;49.488;8.226;2024-01-07T12:16:43;8.47;;;7.83;;
18893;SDS011;9579;49.488;8.226;2024-01-07T12:19:30;9.17;;;8.37;;
18893;SDS011;9579;49.488;8.226;2024-01-07T12:22:17;9.47;;;8.67;;
18893;SDS011;9579;49.488;8.226;2024-01-07T12:25:05;9.47;;;8.70;;
18893;SDS011;9579;49.488;8.226;2024-01-07T12:27:53;9.10;;;8.40;;
18893;SDS011;9579;49.488;8.226;2024-01-07T12:30:41;9.40;;;8.60;;
18893;SDS011;9579;49.488;8.226;2024-01-07T12:33:28;9.93;;;9.03;;
18893;SDS011;9579;49.488;8.226;2024-01-07T12:36:19;8.60;;;7.80;;
18893;SDS011;9579;49.488;8.226;2024-01-07T12:39:07;10.37;;;9.57;;
18893;SDS011;9579;49.488;8.226;2024-01-07T12:41:54;9.27;;;8.57;;
18893;SDS011;9579;49.488;8.226;2024-01-07T12:44:41;9.30;;;8.50;;
18893;SDS011;9579;49.488;8.226;2024-01-07T12:47:30;9.27;;;8.57;;
18893;SDS011;9579;49.488;8.226;2024-01-07T12:50:17;9.00;;;8.20;;
18893;SDS011;9579;49.488;8.226;2024-01-07T12:53:07;9.27;;;8.47;;
18893;SDS011;9579;49.488;8.226;2024-01-07T12:55:54;9.53;;;8.73;;
18893;SDS011;9579;49.488;8.226;2024-01-07T12:58:41;10.10;;;9.20;;
18893;SDS011;9579;49.488;8.226;2024-01-07T13:01:28;10.37;;;9.47;;
18893;SDS011;9579;49.488;8.226;2024-01-07T13:04:18;9.47;;;8.67;;
18893;SDS011;9579;49.488;8.226;2024-01-07T13:07:05;9.00;;;8.20;;
18893;SDS011;9579;49.488;8.226;2024-01-07T13:09:52;9.37;;;8.57;;
18893;SDS011;9579;49.488;8.226;2024-01-07T13:12:39;10.33;;;9.43;;
18893;SDS011;9579;49.488;8.226;2024-01-07T13:15:26;9.30;;;8.50;;
18893;SDS011;9579;49.488;8.226;2024-01-07T13:18:13;9.97;;;9.07;;
18893;SDS011;9579;49.488;8.226;2024-01-07T13:21:02;10.20;;;9.30;;
18893;SDS011;9579;49.488;8.226;2024-01-07T13:23:51;9.20;;;8.40;;
18893;SDS011;9579;49.488;8.226;2024-01-07T13:26:38;9.17;;;8.37;;
18893;SDS011;9579;49.488;8.226;2024-01-07T13:29:27;9.77;;;8.97;;
18893;SDS011;9579;49.488;8.226;2024-01-07T13:32:14;9.60;;;8.70;;
18893;SDS011;9579;49.488;8.226;2024-01-07T13:35:03;8.73;;;7.93;;
18893;SDS011;9579;49.488;8.226;2024-01-07T13:37:52;8.70;;;8.00;;
18893;SDS011;9579;49.488;8.226;2024-01-07T13:40:39;9.73;;;8.93;;
18893;SDS011;9579;49.488;8.226;2024-01-07T13:43:26;8.80;;;8.10;;
18893;SDS011;9579;49.488;8.226;2024-01-07T13:46:14;9.00;;;8.20;;
18893;SDS011;9579;49.488;8.226;2024-01-07T13:49:01;9.13;;;8.33;;
18893;SDS011;9579;49.488;8.226;2024-01-07T13:51:48;10.10;;;9.20;;
18893;SDS011;9579;49.488;8.226;2024-01-07T13:54:37;9.07;;;8.27;;
18893;SDS011;9579;49.488;8.226;2024-01-07T13:57:24;9.17;;;8.40;;
18893;SDS011;9579;49.488;8.226;2024-01-07T14:00:11;8.53;;;7.80;;
18893;SDS011;9579;49.488;8.226;2024-01-07T14:03:03;8.80;;;8.00;;
18893;SDS011;9579;49.488;8.226;2024-01-07T14:05:50;8.63;;;7.87;;
18893;SDS011;9579;49.488;8.226;2024-01-07T14:08:38;8.43;;;7.73;;
18893;SDS011;9579;49.488;8.226;2024-01-07T14:11:26;8.70;;;7.90;;
18893;SDS011;9579;49.488;8.226;2024-01-07T14:14:13;8.57;;;7.77;;
18893;SDS011;9579;49.488;8.226;2024-01-07T14:17:00;9.00;;;8.20;;
18893;SDS011;9579;49.488;8.226;2024-01-07T14:19:47;8.83;;;8.03;;
18893;SDS011;9579;49.488;8.226;2024-01-07T14:22:36;8.70;;;8.00;;
18893;SDS011;9579;49.488;8.226;2024-01-07T14:25:23;8.40;;;7.70;;
18893;SDS011;9579;49.488;8.226;2024-01-07T14:28:11;7.97;;;7.27;;
18893;SDS011;9579;49.488;8.226;2024-01-07T14:30:58;7.93;;;7.23;;
18893;SDS011;9579;49.488;8.226;2024-01-07T14:33:45;8.30;;;7.60;;
18893;SDS011;9579;49.488;8.226;2024-01-07T14:36:32;8.80;;;8.00;;
18893;SDS011;9579;49.488;8.226;2024-01-07T14:39:19;8.20;;;7.50;;
18893;SDS011;9579;49.488;8.226;2024-01-07T14:42:06;8.50;;;7.80;;
18893;SDS011;9579;49.488;8.226;2024-01-07T14:44:55;13.40;;;12.10;;
18893;SDS011;9579;49.488;8.226;2024-01-07T14:47:42;8.50;;;7.80;;
18893;SDS011;9579;49.488;8.226;2024-01-07T14:50:29;8.50;;;7.80;;
18893;SDS011;9579;49.488;8.226;2024-01-07T14:53:16;9.03;;;8.23;;
18893;SDS011;9579;49.488;8.226;2024-01-07T14:56:04;9.47;;;8.67;;
18893;SDS011;9579;49.488;8.226;2024-01-07T14:58:51;9.00;;;8.20;;
18893;SDS011;9579;49.488;8.226;2024-01-07T15:01:40;8.73;;;8.00;;
18893;SDS011;9579;49.488;8.226;2024-01-07T15:04:29;8.57;;;7.87;;
18893;SDS011;9579;49.488;8.226;2024-01-07T15:07:16;8.77;;;7.97;;
18893;SDS011;9579;49.488;8.226;2024-01-07T15:10:03;9.37;;;8.57;;
18893;SDS011;9579;49.488;8.226;2024-01-07T15:12:51;8.40;;;7.70;;
18893;SDS011;9579;49.488;8.226;2024-01-07T15:15:38;8.47;;;7.77;;
18893;SDS011;9579;49.488;8.226;2024-01-07T15:18:26;9.17;;;8.37;;
18893;SDS011;9579;49.488;8.226;2024-01-07T15:21:13;8.50;;;7.80;;
18893;SDS011;9579;49.488;8.226;2024-01-07T15:24:00;9.90;;;9.00;;
18893;SDS011;9579;49.488;8.226;2024-01-07T15:26:47;9.23;;;8.53;;
18893;SDS011;9579;49.488;8.226;2024-01-07T15:29:34;9.23;;;8.43;;
18893;SDS011;9579;49.488;8.226;2024-01-07T15:32:22;10.50;;;9.60;;
18893;SDS011;9579;49.488;8.226;2024-01-07T15:35:13;10.07;;;9.27;;
18893;SDS011;9579;49.488;8.226;2024-01-07T15:38:00;8.93;;;8.23;;
18893;SDS011;9579;49.488;8.226;2024-01-07T15:40:47;9.17;;;8.47;;
18893;SDS011;9579;49.488;8.226;2024-01-07T15:43:34;7.83;;;7.23;;
18893;SDS011;9579;49.488;8.226;2024-01-07T15:46:22;9.40;;;8.50;;
18893;SDS011;9579;49.488;8.226;2024-01-07T15:49:09;9.00;;;8.20;;
18893;SDS011;9579;49.488;8.226;2024-01-07T15:51:57;8.90;;;8.20;;
18893;SDS011;9579;49.488;8.226;2024-01-07T15:54:44;8.63;;;7.90;;
18893;SDS011;9579;49.488;8.226;2024-01-07T15:57:31;9.00;;;8.20;;
18893;SDS011;9579;49.488;8.226;2024-01-07T16:00:19;9.17;;;8.37;;
18893;SDS011;9579;49.488;8.226;2024-01-07T16:03:06;9.20;;;8.40;;
18893;SDS011;9579;49.488;8.226;2024-01-07T16:05:53;9.63;;;8.80;;
18893;SDS011;9579;49.488;8.226;2024-01-07T16:08:43;8.87;;;8.07;;
18893;SDS011;9579;49.488;8.226;2024-01-07T16:11:30;8.50;;;7.80;;
18893;SDS011;9579;49.488;8.226;2024-01-07T16:14:17;8.00;;;7.30;;
18893;SDS011;9579;49.488;8.226;2024-01-07T16:17:10;8.77;;;8.07;;
18893;SDS011;9579;49.488;8.226;2024-01-07T16:19:57;10.50;;;9.50;;
18893;SDS011;9579;49.488;8.226;2024-01-07T16:22:44;14.80;;;13.50;;
18893;SDS011;9579;49.488;8.226;2024-01-07T16:25:32;17.23;;;15.73;;
18893;SDS011;9579;49.488;8.226;2024-01-07T16:28:19;9.23;;;8.33;;
18893;SDS011;9579;49.488;8.226;2024-01-07T16:31:06;7.67;;;7.03;;
18893;SDS011;9579;49.488;8.226;2024-01-07T16:33:53;8.60;;;7.60;;
18893;SDS011;9579;49.488;8.226;2024-01-07T16:36:40;6.83;;;6.23;;
18893;SDS011;9579;49.488;8.226;2024-01-07T16:39:28;6.40;;;5.87;;
18893;SDS011;9579;49.488;8.226;2024-01-07T16:42:16;7.23;;;6.63;;
18893;SDS011;9579;49.488;8.226;2024-01-07T16:45:04;6.60;;;6.00;;
18893;SDS011;9579;49.488;8.226;2024-01-07T16:47:54;6.83;;;6.23;;
18893;SDS011;9579;49.488;8.226;2024-01-07T16:50:42;7.60;;;6.90;;
18893;SDS011;9579;49.488;8.226;2024-01-07T16:53:29;6.80;;;6.20;;
18893;SDS011;9579;49.488;8.226;2024-01-07T16:56:16;7.57;;;6.87;;
18893;SDS011;9579;49.488;8.226;2024-01-07T16:59:04;6.20;;;5.63;;
18893;SDS011;9579;49.488;8.226;2024-01-07T17:01:51;6.00;;;5.50;;